Time;durP1;ratioP1;P1;durP2;ratioP2;P2;SDS_P1;SDS_P2;PMS_P1;PMS_P2;Temp;Humidity;BMP_temperature;BMP_pressure;BME280_temperature;BME280_humidity;BME280_pressure;Samples;Min_cycle;Max_cycle;Signal;HPM_P1;HPM_P2
2022/09/04 00:00:58;;;;;;;1.90;1.35;;;20.60;58.10;;;;;;5051255;28;20559;-71
2022/09/04 00:03:31;;;;;;;2.28;1.40;;;20.60;58.10;;;;;;5050971;28;20417;-74
2022/09/04 00:06:04;;;;;;;2.00;1.40;;;20.60;58.10;;;;;;5050770;28;20143;-73
2022/09/04 00:08:47;;;;;;;2.13;1.40;;;20.70;60.00;;;;;;5051248;28;20056;-71
2022/09/04 00:11:18;;;;;;;1.67;1.33;;;20.60;58.10;;;;;;5050887;28;20089;-71
2022/09/04 00:13:48;;;;;;;1.77;1.30;;;20.50;58.10;;;;;;5052040;28;20045;-71
2022/09/04 00:16:18;;;;;;;1.83;1.42;;;20.50;58.10;;;;;;5051126;28;20059;-71
2022/09/04 00:18:49;;;;;;;1.58;1.30;;;20.50;58.10;;;;;;5051093;28;20553;-71
2022/09/04 00:21:20;;;;;;;2.00;1.50;;;20.50;58.00;;;;;;5047333;28;20053;-71
2022/09/04 00:23:50;;;;;;;4.15;1.42;;;20.50;58.10;;;;;;5030601;28;20056;-71
2022/09/04 00:26:22;;;;;;;3.20;1.60;;;20.50;58.10;;;;;;5031134;28;20497;-71
2022/09/04 00:28:49;;;;;;;2.78;1.50;;;20.50;58.00;;;;;;5030824;28;20049;-71
2022/09/04 00:31:24;;;;;;;2.03;1.30;;;20.50;58.10;;;;;;5031798;28;20056;-71
2022/09/04 00:33:55;;;;;;;2.38;1.50;;;20.50;58.10;;;;;;5033704;28;20063;-72
2022/09/04 00:36:23;;;;;;;2.13;1.33;;;20.50;58.10;;;;;;5050651;28;20053;-71
2022/09/04 00:38:53;;;;;;;3.65;1.70;;;20.50;58.10;;;;;;5050620;28;20057;-71
2022/09/04 00:41:24;;;;;;;2.15;1.30;;;20.50;58.10;;;;;;5050740;28;20135;-71
2022/09/04 00:44:13;;;;;;;2.17;1.48;;;20.50;58.10;;;;;;5050393;28;20504;-71
2022/09/04 00:46:56;;;;;;;2.28;1.40;;;20.40;57.90;;;;;;5050575;28;20053;-71
2022/09/04 00:49:44;;;;;;;2.22;1.73;;;20.50;58.00;;;;;;5050183;28;20045;-71
2022/09/04 00:52:19;;;;;;;1.80;1.23;;;20.40;60.50;;;;;;5013187;28;20074;-71
2022/09/04 00:54:47;;;;;;;;;;;20.40;58.00;;;;;;5050857;28;20059;-71
2022/09/04 00:57:40;;;;;;;2.03;1.50;;;20.40;58.00;;;;;;5050411;28;20003;-71
2022/09/04 01:00:09;;;;;;;1.40;1.30;;;20.40;58.10;;;;;;5050433;28;20057;-71
2022/09/04 01:03:12;;;;;;;1.50;1.30;;;20.40;58.10;;;;;;5050160;28;20568;-72
2022/09/04 01:06:02;;;;;;;1.80;1.40;;;20.40;58.00;;;;;;5008407;28;20065;-71
2022/09/04 01:08:39;;;;;;;2.33;1.73;;;20.40;58.00;;;;;;5037121;28;20060;-71
2022/09/04 01:11:09;;;;;;;1.80;1.50;;;20.40;58.10;;;;;;5051355;28;20506;-72
2022/09/04 01:13:40;;;;;;;1.83;1.38;;;20.40;58.10;;;;;;5049990;28;20048;-72
2022/09/04 01:16:09;;;;;;;1.55;1.40;;;20.40;58.00;;;;;;5050198;28;20049;-71
2022/09/04 01:18:40;;;;;;;1.80;1.40;;;19.10;59.30;;;;;;5050515;28;20056;-71
2022/09/04 01:21:34;;;;;;;3.25;1.40;;;20.40;58.00;;;;;;5049685;28;20417;-71
2022/09/04 01:24:21;;;;;;;1.60;1.40;;;20.40;57.90;;;;;;5050196;28;20413;-71
2022/09/04 01:26:52;;;;;;;1.35;1.20;;;20.40;57.90;;;;;;5033533;28;20053;-72
2022/09/04 01:29:27;;;;;;;2.50;1.55;;;20.40;58.00;;;;;;5048923;28;20049;-71
2022/09/04 01:31:57;;;;;;;1.60;1.40;;;20.40;57.90;;;;;;5050158;28;20432;-71
2022/09/04 01:34:34;;;;;;;1.60;1.30;;;20.40;57.90;;;;;;5049772;28;20053;-71
2022/09/04 01:37:06;;;;;;;1.73;1.55;;;20.30;57.80;;;;;;5050045;28;20045;-71
2022/09/04 01:39:33;;;;;;;1.92;1.42;;;20.40;57.90;;;;;;5050069;28;20137;-71
2022/09/04 01:42:04;;;;;;;2.58;1.95;;;21.10;60.60;;;;;;5049924;28;20059;-71
2022/09/04 01:44:32;;;;;;;1.83;1.40;;;20.30;57.80;;;;;;5049895;28;20044;-71
2022/09/04 01:47:04;;;;;;;2.17;1.35;;;20.40;57.90;;;;;;5051049;28;20088;-71
2022/09/04 01:49:33;;;;;;;3.15;1.50;;;20.40;57.80;;;;;;5053983;28;20055;-71
2022/09/04 01:52:11;;;;;;;2.10;1.60;;;20.40;57.80;;;;;;5053639;28;20059;-71
2022/09/04 01:54:46;;;;;;;1.63;1.42;;;20.30;57.70;;;;;;5053767;28;20068;-71
2022/09/04 01:57:23;;;;;;;2.05;1.50;;;20.30;57.70;;;;;;5053612;28;20063;-72
2022/09/04 02:00:00;;;;;;;2.08;1.50;;;20.30;57.70;;;;;;5053046;28;20059;-71
2022/09/04 02:02:29;;;;;;;1.92;1.50;;;20.30;57.70;;;;;;5054639;28;20051;-73
2022/09/04 02:04:59;;;;;;;2.03;1.25;;;20.30;57.70;;;;;;5053274;28;20060;-73
2022/09/04 02:07:30;;;;;;;2.10;1.40;;;20.30;57.70;;;;;;5053582;28;20056;-73
2022/09/04 02:10:03;;;;;;;1.90;1.40;;;20.30;57.70;;;;;;5053414;28;20055;-73
2022/09/04 02:12:34;;;;;;;2.05;1.30;;;20.20;57.70;;;;;;5054302;28;20514;-73
2022/09/04 02:15:05;;;;;;;1.73;1.40;;;20.20;57.70;;;;;;5050276;28;20053;-73
2022/09/04 02:17:36;;;;;;;1.83;1.40;;;20.20;57.80;;;;;;5053185;28;20482;-73
2022/09/04 02:20:09;;;;;;;1.58;1.40;;;20.20;57.80;;;;;;5053231;28;20057;-71
2022/09/04 02:22:42;;;;;;;1.90;1.50;;;20.20;57.70;;;;;;5053246;28;20079;-71
2022/09/04 02:25:15;;;;;;;3.20;1.60;;;20.10;57.70;;;;;;5054218;28;20513;-71
2022/09/04 02:27:47;;;;;;;1.92;1.50;;;20.20;57.80;;;;;;5052899;28;20053;-72
2022/09/04 02:30:15;;;;;;;1.52;1.33;;;20.20;57.80;;;;;;5052537;28;20135;-71
2022/09/04 02:32:45;;;;;;;1.70;1.50;;;20.20;57.80;;;;;;5052861;28;20049;-71
2022/09/04 02:35:15;;;;;;;2.30;1.60;;;20.20;57.80;;;;;;5054218;28;20049;-71
2022/09/04 02:37:48;;;;;;;2.58;1.70;;;20.10;57.70;;;;;;5053096;28;20148;-71
2022/09/04 02:40:17;;;;;;;2.80;1.50;;;20.10;57.80;;;;;;5052788;28;20057;-71
2022/09/04 02:42:51;;;;;;;1.90;1.50;;;20.20;57.80;;;;;;5052445;28;20076;-71
2022/09/04 02:45:20;;;;;;;2.33;1.40;;;20.10;57.80;;;;;;5053888;28;20135;-71
2022/09/04 02:47:50;;;;;;;1.50;1.40;;;20.10;57.80;;;;;;5052857;28;20057;-73
2022/09/04 02:50:28;;;;;;;1.77;1.50;;;20.10;57.90;;;;;;5052337;28;20059;-73
2022/09/04 02:53:01;;;;;;;1.80;1.48;;;20.10;57.80;;;;;;5052713;28;20532;-74
2022/09/04 02:55:34;;;;;;;3.65;1.50;;;20.10;57.90;;;;;;5053412;28;20103;-74
2022/09/04 02:58:10;;;;;;;1.50;1.40;;;20.10;57.90;;;;;;5053264;28;20080;-73
2022/09/04 03:00:41;;;;;;;1.77;1.40;;;20.00;60.70;;;;;;5052466;28;20057;-73
2022/09/04 03:03:11;;;;;;;1.77;1.58;;;20.10;58.00;;;;;;5052086;28;20055;-73
2022/09/04 03:05:41;;;;;;;2.55;1.50;;;20.00;57.90;;;;;;5052300;28;20056;-73
2022/09/04 03:08:12;;;;;;;1.90;1.50;;;20.10;57.90;;;;;;5052481;28;20114;-73
2022/09/04 03:10:42;;;;;;;4.07;1.58;;;20.10;60.70;;;;;;5052083;28;20056;-73
2022/09/04 03:13:13;;;;;;;4.50;1.25;;;20.00;57.90;;;;;;5053187;28;20049;-73
2022/09/04 03:15:41;;;;;;;1.60;1.48;;;20.00;57.80;;;;;;5052068;28;20063;-71
2022/09/04 03:18:13;;;;;;;1.88;1.50;;;20.00;57.80;;;;;;5053285;28;20051;-71
2022/09/04 03:20:41;;;;;;;1.85;1.48;;;20.00;57.80;;;;;;5052082;28;20067;-72
2022/09/04 03:23:12;;;;;;;1.80;1.60;;;20.00;57.80;;;;;;5052898;28;20401;-71
2022/09/04 03:25:47;;;;;;;2.58;1.70;;;20.00;57.80;;;;;;5053081;28;20131;-71
2022/09/04 03:28:19;;;;;;;2.00;1.50;;;20.10;57.90;;;;;;5051860;28;20401;-71
2022/09/04 03:30:46;;;;;;;1.98;1.60;;;20.00;57.90;;;;;;5053312;28;20400;-72
2022/09/04 03:33:15;;;;;;;1.80;1.60;;;20.00;57.90;;;;;;5052731;28;20045;-71
2022/09/04 03:35:44;;;;;;;2.35;1.65;;;20.00;57.90;;;;;;5051087;28;20140;-71
2022/09/04 03:38:17;;;;;;;2.40;1.50;;;20.00;57.80;;;;;;5051245;28;20401;-71
2022/09/04 03:40:48;;;;;;;2.05;1.40;;;19.90;57.80;;;;;;5051393;28;20053;-71
2022/09/04 03:43:30;;;;;;;1.63;1.40;;;19.90;57.80;;;;;;5048942;28;20044;-71
2022/09/04 03:45:59;;;;;;;1.98;1.63;;;19.90;57.70;;;;;;5048901;28;20049;-72
2022/09/04 03:48:36;;;;;;;1.65;1.40;;;19.90;57.80;;;;;;5051241;28;20052;-71
2022/09/04 03:51:09;;;;;;;2.25;1.80;;;19.90;57.80;;;;;;5050814;28;20048;-73
2022/09/04 03:53:39;;;;;;;2.25;1.63;;;19.90;58.40;;;;;;5048886;28;20053;-73
2022/09/04 03:56:29;;;;;;;1.65;1.42;;;20.00;60.20;;;;;;5051196;28;20053;-73
2022/09/04 03:59:01;;;;;;;1.90;1.40;;;19.90;57.80;;;;;;5048942;28;20057;-71
2022/09/04 04:01:33;;;;;;;2.03;1.40;;;19.90;60.70;;;;;;5050799;28;20064;-71
2022/09/04 04:04:42;;;;;;;1.83;1.50;;;19.80;57.80;;;;;;5049092;28;20045;-71
2022/09/04 04:07:12;;;;;;;1.48;1.38;;;19.90;57.70;;;;;;4992522;28;20081;-73
2022/09/04 04:09:52;;;;;;;2.38;1.75;;;19.80;57.80;;;;;;4993885;28;20515;-73
2022/09/04 04:12:38;;;;;;;1.83;1.42;;;19.90;57.80;;;;;;5015581;28;20155;-73
2022/09/04 04:15:23;;;;;;;2.00;1.50;;;19.90;57.80;;;;;;5031434;28;20049;-73
2022/09/04 04:18:01;;;;;;;2.78;1.55;;;19.80;57.80;;;;;;5031501;28;20138;-73
2022/09/04 04:20:34;;;;;;;2.00;1.50;;;19.80;57.80;;;;;;5031205;28;20049;-73
2022/09/04 04:23:16;;;;;;;1.80;1.50;;;19.80;57.80;;;;;;5049462;28;20053;-73
2022/09/04 04:25:58;;;;;;;2.60;1.60;;;19.80;57.80;;;;;;5050607;28;20055;-72
2022/09/04 04:28:34;;;;;;;1.70;1.33;;;19.80;57.80;;;;;;5050971;28;20491;-74
2022/09/04 04:31:07;;;;;;;1.52;1.35;;;19.80;57.80;;;;;;5050903;28;20719;-74
2022/09/04 04:33:41;;;;;;;1.95;1.60;;;19.80;57.80;;;;;;5050953;28;20045;-74
2022/09/04 04:36:14;;;;;;;1.70;1.40;;;19.80;57.80;;;;;;5050444;28;20136;-74
2022/09/04 04:38:48;;;;;;;1.60;1.50;;;19.80;57.80;;;;;;5051055;28;20140;-74
2022/09/04 04:41:30;;;;;;;2.53;1.55;;;19.80;57.80;;;;;;5050591;28;20052;-71
2022/09/04 04:44:04;;;;;;;1.75;1.40;;;19.80;57.70;;;;;;5050701;28;20120;-74
2022/09/04 04:46:41;;;;;;;1.90;1.55;;;19.80;57.80;;;;;;5050922;28;20405;-74
2022/09/04 04:49:24;;;;;;;1.83;1.40;;;19.80;57.80;;;;;;5050959;28;20056;-74
2022/09/04 04:52:29;;;;;;;1.77;1.48;;;19.80;57.70;;;;;;5050256;28;20140;-74
2022/09/04 04:55:07;;;;;;;1.80;1.60;;;19.70;57.70;;;;;;5050410;28;20060;-74
2022/09/04 04:57:40;;;;;;;1.60;1.48;;;19.70;57.80;;;;;;5050876;28;20056;-73
2022/09/04 05:00:10;;;;;;;2.03;1.67;;;19.70;57.70;;;;;;5050537;28;20052;-73
2022/09/04 05:02:42;;;;;;;1.70;1.60;;;19.70;57.70;;;;;;5050436;28;20049;-74
2022/09/04 05:05:12;;;;;;;2.05;1.50;;;19.80;57.80;;;;;;5050156;28;20056;-74
2022/09/04 05:07:42;;;;;;;1.95;1.50;;;19.70;57.80;;;;;;5050786;28;20057;-73
2022/09/04 05:10:14;;;;;;;2.15;1.67;;;19.70;57.80;;;;;;5050309;28;20140;-72
2022/09/04 05:12:51;;;;;;;2.42;1.67;;;19.70;57.80;;;;;;5050749;28;20104;-71
2022/09/04 05:15:20;;;;;;;2.15;1.60;;;19.70;57.70;;;;;;5050596;28;20512;-71
2022/09/04 05:17:51;;;;;;;2.83;1.50;;;19.70;57.80;;;;;;5050643;28;20061;-72
2022/09/04 05:20:25;;;;;;;2.10;1.55;;;19.70;57.70;;;;;;5050198;28;20136;-72
2022/09/04 05:22:56;;;;;;;2.25;1.85;;;19.70;57.70;;;;;;5054019;28;20049;-73
2022/09/04 05:25:26;;;;;;;1.60;1.50;;;19.70;57.80;;;;;;5054250;28;20045;-72
2022/09/04 05:27:57;;;;;;;2.15;1.70;;;19.70;57.70;;;;;;5054569;28;20464;-73
2022/09/04 05:30:30;;;;;;;1.40;1.30;;;21.60;58.80;;;;;;5054247;28;20068;-73
2022/09/04 05:33:03;;;;;;;2.45;1.50;;;19.70;57.80;;;;;;5055325;28;20041;-73
2022/09/04 05:35:34;;;;;;;1.90;1.50;;;19.70;57.80;;;;;;5055228;28;20059;-72
2022/09/04 05:38:04;;;;;;;2.03;1.70;;;19.70;57.80;;;;;;5053933;28;20059;-73
2022/09/04 05:40:36;;;;;;;2.50;2.00;;;19.70;57.80;;;;;;5054111;28;20131;-72
2022/09/04 05:43:08;;;;;;;2.08;1.60;;;19.70;57.80;;;;;;5054098;28;20132;-71
2022/09/04 05:45:44;;;;;;;3.85;1.90;;;19.70;58.30;;;;;;5054186;28;20387;-71
2022/09/04 05:48:16;;;;;;;2.45;1.83;;;19.30;59.90;;;;;;5053938;28;20057;-71
2022/09/04 05:50:52;;;;;;;1.90;1.42;;;19.70;57.70;;;;;;5054056;28;20060;-71
2022/09/04 05:53:43;;;;;;;2.08;1.55;;;19.70;57.70;;;;;;5054103;28;20063;-71
2022/09/04 05:56:26;;;;;;;2.85;1.83;;;19.70;57.70;;;;;;5053855;28;20080;-72
2022/09/04 05:59:21;;;;;;;2.88;1.55;;;19.70;57.70;;;;;;5055032;28;20044;-71
2022/09/04 06:01:57;;;;;;;1.58;1.35;;;19.70;57.70;;;;;;5046497;28;20406;-72
2022/09/04 06:04:36;;;;;;;1.77;1.45;;;19.70;57.80;;;;;;5053735;28;20075;-71
2022/09/04 06:07:07;;;;;;;2.40;1.85;;;19.70;57.80;;;;;;5053592;28;20402;-74
2022/09/04 06:09:44;;;;;;;2.03;1.65;;;19.70;57.80;;;;;;5053537;28;20063;-73
2022/09/04 06:12:35;;;;;;;1.70;1.52;;;19.70;57.70;;;;;;5053586;28;20140;-73
2022/09/04 06:15:15;;;;;;;3.47;1.67;;;19.70;57.70;;;;;;5052602;28;20060;-73
2022/09/04 06:18:18;;;;;;;1.95;1.60;;;19.70;57.70;;;;;;5053343;28;20148;-72
2022/09/04 06:21:21;;;;;;;2.13;1.60;;;19.70;57.70;;;;;;5065308;28;20079;-73
2022/09/04 06:24:00;;;;;;;2.05;1.50;;;19.70;57.70;;;;;;5023462;28;20132;-74
2022/09/04 06:26:39;;;;;;;2.17;1.40;;;19.70;57.70;;;;;;5054307;28;20053;-72
2022/09/04 06:29:16;;;;;;;1.80;1.50;;;18.80;59.70;;;;;;5053415;28;20136;-71
2022/09/04 06:32:03;;;;;;;1.70;1.45;;;19.70;57.80;;;;;;5053676;28;20417;-71
2022/09/04 06:34:37;;;;;;;2.13;1.58;;;19.70;57.70;;;;;;5052717;28;20099;-71
2022/09/04 06:37:10;;;;;;;2.55;1.85;;;19.70;57.70;;;;;;5054306;28;20140;-71
2022/09/04 06:39:46;;;;;;;2.63;1.58;;;19.70;57.70;;;;;;5052956;28;20055;-71
2022/09/04 06:42:36;;;;;;;1.90;1.50;;;19.70;57.70;;;;;;5052932;28;20067;-72
2022/09/04 06:45:13;;;;;;;1.63;1.50;;;19.70;57.70;;;;;;5052622;28;20049;-71
2022/09/04 06:47:47;;;;;;;1.75;1.33;;;19.70;57.80;;;;;;5052595;28;20128;-71
2022/09/04 06:50:20;;;;;;;2.85;1.55;;;19.80;57.90;;;;;;5053914;28;20128;-72
2022/09/04 06:52:54;;;;;;;1.80;1.50;;;19.80;57.90;;;;;;5054021;28;20387;-71
2022/09/04 06:55:26;;;;;;;1.77;1.45;;;19.80;57.90;;;;;;5052951;28;20135;-71
2022/09/04 06:58:08;;;;;;;2.08;1.55;;;19.80;58.40;;;;;;5052694;28;20060;-71
2022/09/04 07:00:38;;;;;;;1.65;1.52;;;19.80;57.80;;;;;;5052226;28;20057;-71
2022/09/04 07:03:26;;;;;;;2.17;1.60;;;19.80;57.80;;;;;;5053756;28;20409;-71
2022/09/04 07:05:54;;;;;;;1.90;1.45;;;19.90;57.80;;;;;;5051702;28;20053;-71
2022/09/04 07:08:28;;;;;;;2.00;1.52;;;19.90;57.90;;;;;;5052681;28;20048;-71
2022/09/04 07:11:02;;;;;;;2.05;1.60;;;19.90;57.80;;;;;;5053588;28;20132;-71
2022/09/04 07:13:46;;;;;;;1.70;1.40;;;19.90;57.80;;;;;;5052302;28;20052;-72
2022/09/04 07:16:37;;;;;;;2.17;1.50;;;19.90;57.80;;;;;;5051104;28;20486;-71
2022/09/04 07:19:19;;;;;;;1.65;1.40;;;20.00;57.80;;;;;;5050884;28;20574;-71
2022/09/04 07:21:51;;;;;;;2.58;1.65;;;19.90;57.70;;;;;;5050347;28;20467;-70
2022/09/04 07:24:46;;;;;;;2.15;1.60;;;19.90;57.70;;;;;;5052100;28;20049;-73
2022/09/04 07:27:17;;;;;;;2.38;1.70;;;20.00;57.70;;;;;;5051666;28;20127;-73
2022/09/04 07:29:47;;;;;;;2.75;1.90;;;19.90;57.70;;;;;;5052367;28;20076;-70
2022/09/04 07:32:17;;;;;;;2.80;1.95;;;19.90;57.70;;;;;;5051999;28;20148;-71
2022/09/04 07:34:47;;;;;;;4.22;1.80;;;19.90;57.70;;;;;;5052123;28;20052;-71
2022/09/04 07:37:23;;;;;;;2.42;1.60;;;19.90;57.70;;;;;;5051892;28;20057;-72
2022/09/04 07:39:59;;;;;;;2.17;1.73;;;19.90;59.60;;;;;;5051717;28;20063;-71
2022/09/04 07:42:30;;;;;;;2.35;1.70;;;19.90;57.70;;;;;;5051471;28;20067;-71
2022/09/04 07:45:01;;;;;;;2.70;1.50;;;19.90;57.70;;;;;;5050919;28;20442;-71
2022/09/04 07:47:29;;;;;;;2.28;1.60;;;19.90;57.70;;;;;;5053122;28;20445;-74
2022/09/04 07:50:00;;;;;;;1.92;1.50;;;19.90;57.70;;;;;;5051476;28;20060;-74
2022/09/04 07:52:35;;;;;;;2.80;1.60;;;18.50;59.70;;;;;;5051851;28;20066;-71
2022/09/04 07:55:11;;;;;;;3.17;1.60;;;19.90;57.70;;;;;;5051144;28;20055;-71
2022/09/04 07:58:07;;;;;;;2.67;1.60;;;19.90;57.70;;;;;;5051241;28;20059;-71
2022/09/04 08:00:36;;;;;;;;;;;19.90;57.70;;;;;;5044519;28;20064;-71
2022/09/04 08:03:19;;;;;;;1.98;1.63;;;19.80;57.70;;;;;;5051381;28;19921;-74
2022/09/04 08:05:48;;;;;;;2.40;1.90;;;19.80;57.80;;;;;;5049818;28;20057;-73
2022/09/04 08:08:30;;;;;;;2.28;1.60;;;19.80;57.80;;;;;;5051537;28;20053;-71
2022/09/04 08:11:04;;;;;;;12.07;2.53;;;19.90;57.80;;;;;;5052252;28;20049;-71
2022/09/04 08:13:42;;;;;;;6.25;2.03;;;19.90;57.80;;;;;;5052197;28;20041;-71
2022/09/04 08:16:11;;;;;;;2.88;1.90;;;19.90;57.80;;;;;;5052559;28;20123;-72
2022/09/04 08:19:05;;;;;;;5.10;2.40;;;19.90;57.80;;;;;;5052604;28;20045;-72
2022/09/04 08:21:34;;;;;;;8.10;1.80;;;20.00;57.80;;;;;;5033692;28;20061;-72
2022/09/04 08:24:29;;;;;;;2.35;1.67;;;20.00;57.90;;;;;;5051025;28;20059;-71
2022/09/04 08:27:04;;;;;;;3.58;2.10;;;20.00;57.80;;;;;;5051260;28;20585;-73
2022/09/04 08:29:56;;;;;;;3.22;1.90;;;20.00;57.80;;;;;;5050907;28;20131;-74
2022/09/04 08:32:44;;;;;;;2.75;2.00;;;20.10;57.80;;;;;;5047891;28;20525;-74
2022/09/04 08:35:17;;;;;;;8.23;1.70;;;20.10;57.80;;;;;;5051053;28;20056;-74
2022/09/04 08:37:50;;;;;;;2.70;1.80;;;20.10;57.80;;;;;;5050824;28;20055;-73
2022/09/04 08:40:43;;;;;;;4.85;1.80;;;20.10;57.80;;;;;;5050676;28;20053;-72
2022/09/04 08:43:25;;;;;;;6.63;1.88;;;20.10;57.80;;;;;;5044302;28;20045;-73
2022/09/04 08:46:31;;;;;;;2.22;1.73;;;20.10;57.90;;;;;;5048003;28;20551;-73
2022/09/04 08:49:32;;;;;;;8.02;2.13;;;20.10;57.90;;;;;;5044461;28;20472;-74
2022/09/04 08:52:24;;;;;;;3.17;1.80;;;20.10;58.00;;;;;;5037985;28;20110;-72
2022/09/04 08:55:17;;;;;;;2.58;1.70;;;20.10;58.00;;;;;;5050544;28;20471;-74
2022/09/04 08:57:59;;;;;;;6.47;1.80;;;19.90;57.80;;;;;;5050404;28;20468;-75
2022/09/04 09:00:27;;;;;;;3.40;2.05;;;20.10;58.00;;;;;;5050269;28;20065;-73
2022/09/04 09:03:45;;;;;;;7.43;2.13;;;20.10;58.10;;;;;;5050695;28;20067;-70
2022/09/04 09:06:39;;;;;;;3.22;1.88;;;20.20;58.10;;;;;;5004031;28;20063;-72
2022/09/04 09:09:48;;;;;;;2.20;1.83;;;20.20;58.10;;;;;;5050634;28;20067;-73
2022/09/04 09:12:38;;;;;;;5.97;1.77;;;20.20;58.30;;;;;;5050351;28;20468;-71
2022/09/04 09:15:30;;;;;;;3.50;1.80;;;20.20;58.50;;;;;;5050388;28;20045;-71
2022/09/04 09:18:01;;;;;;;4.38;1.83;;;20.20;58.50;;;;;;5051740;28;20110;-71
2022/09/04 09:20:28;;;;;;;6.65;2.10;;;20.30;58.50;;;;;;5050029;28;20065;-72
2022/09/04 09:23:19;;;;;;;6.90;1.85;;;20.30;58.50;;;;;;5050553;28;20135;-74
2022/09/04 09:25:50;;;;;;;5.78;1.80;;;20.30;58.50;;;;;;5049781;28;20081;-73
2022/09/04 09:28:50;;;;;;;6.90;1.67;;;20.40;58.50;;;;;;5047208;28;20061;-74
2022/09/04 09:31:55;;;;;;;4.00;1.98;;;20.40;58.40;;;;;;5048945;28;20044;-74
2022/09/04 09:34:53;;;;;;;2.95;1.80;;;20.40;58.40;;;;;;5048391;28;20049;-73
2022/09/04 09:37:35;;;;;;;3.00;1.80;;;20.40;58.30;;;;;;5048364;28;20448;-72
2022/09/04 09:40:30;;;;;;;4.15;1.77;;;20.40;58.20;;;;;;5050090;28;20124;-73
2022/09/04 09:43:11;;;;;;;3.22;2.08;;;20.40;58.10;;;;;;5041520;28;20056;-73
2022/09/04 09:46:01;;;;;;;4.53;1.95;;;20.40;58.10;;;;;;5048129;28;20041;-72
2022/09/04 09:49:01;;;;;;;3.28;1.77;;;20.50;58.10;;;;;;5048986;28;20057;-74
2022/09/04 09:51:51;;;;;;;3.15;1.70;;;20.50;58.10;;;;;;5047312;28;20091;-74
2022/09/04 09:54:33;;;;;;;5.05;2.03;;;20.50;58.10;;;;;;5047878;28;20128;-71
2022/09/04 09:57:25;;;;;;;3.47;1.80;;;20.50;58.10;;;;;;5048583;28;20053;-70
2022/09/04 10:00:05;;;;;;;5.47;1.77;;;20.50;58.00;;;;;;5049296;28;20052;-72
2022/09/04 10:03:10;;;;;;;3.22;1.90;;;20.60;58.00;;;;;;5049273;28;20056;-71
2022/09/04 10:05:50;;;;;;;9.23;1.80;;;20.60;58.00;;;;;;5048056;28;20153;-71
2022/09/04 10:08:33;;;;;;;6.72;1.80;;;20.60;58.10;;;;;;5051158;28;20085;-75
2022/09/04 10:11:22;;;;;;;7.57;2.17;;;20.70;58.10;;;;;;5053110;28;20068;-72
2022/09/04 10:14:13;;;;;;;4.50;1.98;;;20.80;58.10;;;;;;5023778;28;20053;-71
2022/09/04 10:16:53;;;;;;;2.70;1.70;;;20.80;58.00;;;;;;5038387;28;20057;-71
2022/09/04 10:19:45;;;;;;;8.05;2.40;;;20.80;57.90;;;;;;5051425;28;20128;-73
2022/09/04 10:22:55;;;;;;;6.10;2.22;;;20.80;57.80;;;;;;5047640;28;20052;-74
2022/09/04 10:25:38;;;;;;;6.30;2.00;;;20.90;57.80;;;;;;4991494;28;20057;-73
2022/09/04 10:28:24;;;;;;;3.58;1.80;;;20.90;57.80;;;;;;5053099;28;20063;-72
2022/09/04 10:31:09;;;;;;;6.40;2.30;;;20.90;57.80;;;;;;5034223;28;20049;-72
2022/09/04 10:33:41;;;;;;;4.00;2.03;;;20.90;57.70;;;;;;5043745;28;20049;-72
2022/09/04 10:36:18;;;;;;;3.90;2.17;;;20.90;57.60;;;;;;5052695;28;20132;-74
2022/09/04 10:41:44;;;;;;;5.28;2.17;;;21.00;58.10;;;;;;5052760;28;20072;-74
2022/09/04 10:44:30;;;;;;;4.38;1.88;;;21.00;57.40;;;;;;5053121;28;20061;-74
2022/09/04 10:47:02;;;;;;;5.03;1.98;;;21.00;57.40;;;;;;5032782;28;20091;-72
2022/09/04 10:49:44;;;;;;;3.78;1.80;;;21.00;57.40;;;;;;5039598;28;20055;-73
2022/09/04 10:52:48;;;;;;;5.60;2.17;;;21.10;57.40;;;;;;5050504;28;20064;-73
2022/09/04 10:55:30;;;;;;;3.15;2.08;;;21.10;57.30;;;;;;5052605;28;20080;-73
2022/09/04 10:58:26;;;;;;;4.60;2.03;;;21.00;57.20;;;;;;5052461;28;20049;-74
2022/09/04 11:01:09;;;;;;;2.75;1.85;;;21.20;57.20;;;;;;5052082;28;20056;-73
2022/09/04 11:03:43;;;;;;;3.80;1.98;;;21.20;57.20;;;;;;5052267;28;20508;-73
2022/09/04 11:06:32;;;;;;;6.35;2.10;;;21.20;57.10;;;;;;5051808;28;20493;-74
2022/09/04 11:09:40;;;;;;;4.30;2.45;;;21.20;57.10;;;;;;5051966;28;20055;-74
2022/09/04 11:12:30;;;;;;;5.18;2.28;;;21.30;57.10;;;;;;5002704;28;20065;-71
2022/09/04 11:15:25;;;;;;;5.43;1.90;;;21.30;57.10;;;;;;5051170;28;20115;-73
2022/09/04 11:17:59;;;;;;;7.63;3.15;;;21.30;57.30;;;;;;5049463;28;20048;-74
2022/09/04 11:20:55;;;;;;;5.75;2.83;;;21.30;57.10;;;;;;5050418;28;20055;-72
2022/09/04 11:23:49;;;;;;;4.20;1.90;;;21.30;57.10;;;;;;5051797;28;20052;-72
2022/09/04 11:26:46;;;;;;;4.05;2.30;;;21.40;57.00;;;;;;5033489;28;20402;-72
2022/09/04 11:29:22;;;;;;;2.55;2.05;;;21.40;57.00;;;;;;5053049;28;20053;-71
2022/09/04 11:32:02;;;;;;;4.97;2.17;;;21.40;57.00;;;;;;5051888;28;20053;-72
2022/09/04 11:35:23;;;;;;;4.18;2.35;;;21.40;57.00;;;;;;5051816;28;20085;-72
2022/09/04 11:38:03;;;;;;;3.30;2.33;;;21.50;57.00;;;;;;4990508;28;20422;-72
2022/09/04 11:40:46;;;;;;;3.22;2.40;;;21.50;57.10;;;;;;5037254;28;20051;-72
2022/09/04 11:43:35;;;;;;;3.42;2.22;;;21.50;57.00;;;;;;5050458;28;20075;-71
2022/09/04 11:46:30;;;;;;;3.97;2.55;;;21.50;56.90;;;;;;5022227;28;20040;-72
2022/09/04 11:49:26;;;;;;;3.80;2.33;;;21.50;56.90;;;;;;5051647;28;20414;-71
2022/09/04 11:52:08;;;;;;;3.63;2.58;;;21.50;56.90;;;;;;5052350;28;20053;-72
2022/09/04 11:55:05;;;;;;;4.28;2.80;;;21.30;57.00;;;;;;5051267;28;20053;-71
2022/09/04 11:57:38;;;;;;;8.60;2.53;;;21.60;57.00;;;;;;5034989;28;20049;-73
2022/09/04 12:00:10;;;;;;;5.88;2.67;;;21.60;57.00;;;;;;5043409;28;20131;-71
2022/09/04 12:03:08;;;;;;;3.22;2.65;;;21.60;57.00;;;;;;5051109;28;20122;-72
2022/09/04 12:06:00;;;;;;;4.57;2.53;;;21.60;57.00;;;;;;4976506;28;20061;-72
2022/09/04 12:08:55;;;;;;;3.88;2.40;;;21.60;57.00;;;;;;5035171;28;20053;-72
2022/09/04 12:14:32;;;;;;;6.18;2.40;;;21.60;58.20;;;;;;5089297;27;20368;-71
2022/09/04 12:17:28;;;;;;;4.78;2.60;;;21.70;56.90;;;;;;5068188;28;20091;-71
2022/09/04 12:20:24;;;;;;;2.72;2.30;;;21.70;56.90;;;;;;5065117;28;20496;-71
2022/09/04 12:23:15;;;;;;;4.10;2.63;;;21.70;57.00;;;;;;5068453;28;20512;-72
2022/09/04 12:26:15;;;;;;;6.20;2.53;;;21.70;57.20;;;;;;5068584;28;20053;-71
2022/09/04 12:29:09;;;;;;;4.22;2.60;;;21.70;57.50;;;;;;5060124;28;20049;-70
2022/09/04 12:31:46;;;;;;;4.38;2.55;;;21.70;57.60;;;;;;5048021;28;20124;-72
2022/09/04 12:34:23;;;;;;;5.00;2.30;;;21.70;57.30;;;;;;5047537;28;20088;-72
2022/09/04 12:37:05;;;;;;;3.63;2.45;;;21.70;57.40;;;;;;5048821;28;20049;-72
2022/09/04 12:40:08;;;;;;;4.88;2.30;;;21.70;57.50;;;;;;5047800;28;20409;-72
2022/09/04 12:42:37;;;;;;;4.10;2.42;;;21.80;57.40;;;;;;5049272;28;20425;-72
2022/09/04 12:45:10;;;;;;;4.45;2.40;;;21.70;57.30;;;;;;5058193;28;20057;-72
2022/09/04 12:47:45;;;;;;;4.50;2.40;;;21.70;57.20;;;;;;5066341;28;20405;-72
2022/09/04 12:50:18;;;;;;;4.50;2.25;;;21.80;57.30;;;;;;5060525;28;20145;-73
2022/09/04 12:53:01;;;;;;;4.38;2.42;;;21.70;57.20;;;;;;5060996;28;20475;-73
2022/09/04 12:55:30;;;;;;;3.85;2.38;;;21.70;57.20;;;;;;5047477;28;20513;-72
2022/09/04 12:58:04;;;;;;;4.68;2.55;;;21.80;57.30;;;;;;5047314;28;20281;-71
2022/09/04 13:00:33;;;;;;;6.97;2.40;;;21.80;57.30;;;;;;5046276;28;20057;-70
2022/09/04 13:03:05;;;;;;;3.55;2.17;;;21.70;57.10;;;;;;5047638;28;20505;-70
2022/09/04 13:05:39;;;;;;;3.20;2.33;;;21.80;57.20;;;;;;5054108;28;20044;-71
2022/09/04 13:08:18;;;;;;;4.35;2.20;;;21.80;57.20;;;;;;5065638;28;20055;-70
2022/09/04 13:10:52;;;;;;;2.60;2.00;;;21.80;57.30;;;;;;5064758;28;20132;-70
2022/09/04 13:13:22;;;;;;;3.42;2.08;;;21.80;57.30;;;;;;5061019;28;20075;-70
2022/09/04 13:15:54;;;;;;;4.22;2.08;;;21.80;57.30;;;;;;5064800;28;20148;-71
2022/09/04 13:18:30;;;;;;;2.30;2.10;;;21.80;57.30;;;;;;5065752;28;20139;-71
2022/09/04 13:21:00;;;;;;;3.15;2.00;;;21.80;57.30;;;;;;5062720;28;20049;-70
2022/09/04 13:23:40;;;;;;;3.15;2.08;;;21.80;57.30;;;;;;5063973;28;20088;-71
2022/09/04 13:26:24;;;;;;;3.47;2.20;;;21.80;57.30;;;;;;5049882;28;20084;-70
2022/09/04 13:28:55;;;;;;;2.35;1.90;;;21.80;57.30;;;;;;5051063;28;20386;-70
2022/09/04 13:31:37;;;;;;;2.38;1.90;;;21.80;57.20;;;;;;5051848;28;20052;-70
2022/09/04 13:34:12;;;;;;;2.33;1.90;;;21.80;57.30;;;;;;5051230;28;20133;-70
2022/09/04 13:36:44;;;;;;;2.20;1.83;;;21.80;57.30;;;;;;5050579;28;20049;-70
2022/09/04 13:39:38;;;;;;;2.88;2.08;;;21.80;57.30;;;;;;5034222;28;20064;-72
2022/09/04 13:42:13;;;;;;;2.85;1.98;;;21.80;57.30;;;;;;5040097;28;20055;-72
2022/09/04 13:44:58;;;;;;;3.17;2.00;;;21.80;57.30;;;;;;5044823;28;20133;-71
2022/09/04 13:47:25;;;;;;;2.47;1.80;;;21.80;57.20;;;;;;5053090;28;20128;-72
2022/09/04 13:49:56;;;;;;;3.65;2.13;;;21.80;57.20;;;;;;5036351;28;20059;-71
2022/09/04 13:52:26;;;;;;;2.70;1.98;;;21.80;57.20;;;;;;5051602;28;20056;-73
2022/09/04 13:54:55;;;;;;;4.10;2.10;;;21.80;57.30;;;;;;5052860;28;20059;-73